Time;durP1;ratioP1;P1;durP2;ratioP2;P2;SDS_P1;SDS_P2;PMS_P1;PMS_P2;Temp;Humidity;BMP_temperature;BMP_pressure;BME280_temperature;BME280_humidity;BME280_pressure;Samples;Min_cycle;Max_cycle;Signal;HPM_P1;HPM_P2
2023/05/09 00:06:12;;;;;;;7.03;5.68;;;8.80;99.90;;;;;;25963763;22;20072;-51
2023/05/09 00:16:14;;;;;;;8.52;5.85;;;8.90;99.90;;;;;;25965161;22;20000;-51
2023/05/09 00:26:16;;;;;;;9.38;6.55;;;8.90;99.90;;;;;;25964975;22;20004;-48
2023/05/09 00:36:18;;;;;;;11.98;7.05;;;8.90;99.90;;;;;;25971217;22;20311;-59
2023/05/09 00:46:21;;;;;;;8.55;6.25;;;8.80;99.90;;;;;;25972423;22;20020;-59
2023/05/09 00:56:22;;;;;;;9.68;6.18;;;8.90;99.90;;;;;;25972317;22;20003;-58
2023/05/09 01:06:38;;;;;;;7.70;5.60;;;9.00;99.90;;;;;;25971837;22;20038;-60
2023/05/09 01:16:58;;;;;;;8.40;6.45;;;9.10;99.90;;;;;;26013765;22;20014;-58
2023/05/09 01:27:20;;;;;;;7.18;5.60;;;9.20;99.90;;;;;;26013539;22;20012;-59
2023/05/09 01:37:28;;;;;;;10.50;7.20;;;9.30;99.90;;;;;;25985642;22;19999;-52
2023/05/09 01:47:30;;;;;;;9.63;7.70;;;9.30;99.90;;;;;;25961330;22;20012;-46
2023/05/09 01:57:33;;;;;;;8.73;6.60;;;9.30;99.90;;;;;;25969725;22;20007;-48
2023/05/09 02:07:36;;;;;;;8.30;6.85;;;9.30;99.90;;;;;;25942058;22;19999;-58
2023/05/09 02:17:38;;;;;;;8.13;6.97;;;9.40;99.90;;;;;;25968611;22;20004;-49
2023/05/09 02:27:41;;;;;;;9.77;7.40;;;9.30;99.90;;;;;;25968740;22;20015;-49
2023/05/09 02:37:44;;;;;;;13.93;8.63;;;9.20;99.90;;;;;;25940850;22;19999;-50
2023/05/09 02:47:46;;;;;;;12.27;8.35;;;9.10;99.90;;;;;;25967439;22;20340;-47
2023/05/09 02:57:47;;;;;;;11.68;7.88;;;9.20;99.90;;;;;;25940009;22;20011;-58
2023/05/09 03:07:50;;;;;;;11.35;8.02;;;9.20;99.90;;;;;;25966841;22;20049;-48
2023/05/09 03:17:52;;;;;;;11.65;7.65;;;9.20;99.90;;;;;;25939454;22;20512;-51
2023/05/09 03:27:56;;;;;;;10.60;8.00;;;9.30;99.90;;;;;;25939075;22;20007;-58
2023/05/09 03:37:59;;;;;;;10.65;7.50;;;9.40;99.90;;;;;;25938630;22;20003;-50
2023/05/09 03:48:04;;;;;;;9.55;7.55;;;9.40;99.90;;;;;;25964606;22;20038;-45
2023/05/09 03:58:06;;;;;;;8.05;6.10;;;9.40;99.90;;;;;;25980260;22;20000;-51
2023/05/09 04:08:12;;;;;;;8.43;7.07;;;9.40;99.90;;;;;;25942837;22;20073;-50
2023/05/09 04:18:14;;;;;;;9.90;7.40;;;9.40;99.90;;;;;;25973761;22;20026;-45
2023/05/09 04:28:16;;;;;;;11.98;8.02;;;9.50;99.90;;;;;;25973551;22;19999;-50
2023/05/09 04:38:18;;;;;;;10.30;7.55;;;9.50;99.90;;;;;;25946646;22;20015;-45
2023/05/09 04:48:20;;;;;;;10.75;8.20;;;9.50;99.90;;;;;;25945180;22;20023;-57
2023/05/09 04:58:22;;;;;;;9.85;8.13;;;9.70;99.90;;;;;;25972142;22;20014;-50
2023/05/09 05:08:24;;;;;;;8.00;6.50;;;9.80;99.90;;;;;;25944629;22;20057;-51
2023/05/09 05:18:26;;;;;;;7.82;6.45;;;9.90;99.90;;;;;;25944202;22;20447;-45
2023/05/09 05:28:29;;;;;;;6.80;5.70;;;10.20;99.90;;;;;;25943828;22;20354;-54
2023/05/09 05:38:31;;;;;;;7.22;5.95;;;10.40;99.90;;;;;;25943467;22;20008;-58
2023/05/09 05:48:33;;;;;;;8.02;6.78;;;10.70;99.90;;;;;;25943171;22;20045;-54
2023/05/09 05:58:35;;;;;;;9.23;7.97;;;10.80;99.90;;;;;;25969675;22;20004;-47
2023/05/09 06:08:38;;;;;;;8.77;7.28;;;11.00;99.90;;;;;;25941278;22;20080;-47
2023/05/09 06:18:40;;;;;;;10.13;8.05;;;11.10;99.90;;;;;;25968787;22;20004;-58
2023/05/09 06:28:42;;;;;;;11.30;8.50;;;11.20;99.90;;;;;;25967044;22;20059;-58
2023/05/09 06:38:43;;;;;;;8.20;7.40;;;11.40;99.90;;;;;;25967160;22;20004;-50
2023/05/09 06:48:45;;;;;;;9.27;8.23;;;11.70;99.90;;;;;;25967830;22;20011;-50
2023/05/09 06:58:47;;;;;;;9.68;8.55;;;11.90;99.90;;;;;;25967353;22;20007;-50
2023/05/09 07:08:48;;;;;;;12.18;9.55;;;12.00;99.90;;;;;;25939296;22;20042;-49
2023/05/09 07:18:50;;;;;;;12.32;10.10;;;11.90;99.90;;;;;;25965554;22;20003;-50
2023/05/09 07:28:51;;;;;;;15.77;10.10;;;11.70;99.90;;;;;;25966246;22;20050;-49
2023/05/09 07:38:53;;;;;;;15.60;10.73;;;11.60;99.90;;;;;;25964318;22;20004;-46
2023/05/09 07:48:55;;;;;;;10.65;9.20;;;11.70;99.90;;;;;;25964023;22;20019;-50
2023/05/09 07:58:56;;;;;;;11.13;9.07;;;11.60;99.90;;;;;;25965155;22;20030;-46
2023/05/09 08:08:58;;;;;;;11.25;9.15;;;11.60;99.90;;;;;;25965327;22;20443;-47
2023/05/09 08:18:59;;;;;;;9.15;7.68;;;11.80;99.90;;;;;;25964804;22;20054;-49
2023/05/09 08:29:01;;;;;;;9.27;7.50;;;11.90;99.90;;;;;;25964807;22;20010;-50
2023/05/09 08:39:03;;;;;;;8.35;6.90;;;12.10;99.90;;;;;;25965734;22;20012;-49
2023/05/09 08:49:08;;;;;;;7.85;6.53;;;13.00;99.90;;;;;;25964510;22;20020;-51
2023/05/09 08:59:10;;;;;;;7.63;6.82;;;13.40;99.90;;;;;;25971987;22;20085;-48
2023/05/09 09:09:12;;;;;;;8.25;7.15;;;13.70;99.90;;;;;;25970785;22;20497;-47
2023/05/09 09:19:16;;;;;;;9.55;8.55;;;13.70;99.90;;;;;;25971043;22;20011;-47
2023/05/09 09:29:19;;;;;;;10.32;8.23;;;14.00;99.90;;;;;;25943582;22;20320;-59
2023/05/09 09:39:21;;;;;;;11.60;9.45;;;14.10;99.90;;;;;;25970999;22;19999;-47
2023/05/09 09:49:25;;;;;;;10.90;9.13;;;13.90;99.90;;;;;;25970326;22;20020;-47
2023/05/09 09:59:27;;;;;;;13.15;10.75;;;14.20;99.90;;;;;;25969863;22;20000;-50
2023/05/09 10:09:28;;;;;;;9.98;8.60;;;13.60;99.90;;;;;;25968011;22;20008;-47
2023/05/09 10:19:31;;;;;;;16.48;10.45;;;13.00;99.90;;;;;;25968888;22;20049;-51
2023/05/09 10:29:36;;;;;;;10.00;7.90;;;12.70;99.90;;;;;;25968375;22;20004;-48
2023/05/09 10:39:39;;;;;;;9.55;8.40;;;12.70;99.90;;;;;;25967945;22;20003;-49
2023/05/09 10:49:43;;;;;;;13.77;9.05;;;12.80;99.90;;;;;;25967755;22;20015;-48
2023/05/09 10:59:45;;;;;;;10.25;8.30;;;12.80;99.90;;;;;;25967095;22;20004;-51
2023/05/09 11:10:09;;;;;;;9.18;8.27;;;12.70;99.90;;;;;;25966403;22;20492;-50
2023/05/09 11:20:10;;;;;;;13.48;11.70;;;12.70;99.90;;;;;;26007842;22;20062;-61
2023/05/09 11:30:14;;;;;;;13.45;11.70;;;12.40;99.90;;;;;;25965437;22;20010;-50
2023/05/09 11:40:18;;;;;;;14.63;12.60;;;11.80;99.90;;;;;;25964963;22;20004;-52
2023/05/09 11:50:20;;;;;;;11.20;9.60;;;11.70;99.90;;;;;;25964281;22;20015;-46
2023/05/09 12:00:23;;;;;;;13.63;11.10;;;12.30;99.90;;;;;;25964186;22;20049;-52
2023/05/09 12:10:25;;;;;;;12.85;10.52;;;12.30;99.90;;;;;;25962902;22;20045;-51
2023/05/09 12:20:26;;;;;;;14.35;11.05;;;12.30;99.90;;;;;;25963563;22;20004;-61
2023/05/09 12:30:30;;;;;;;12.57;11.18;;;12.40;99.90;;;;;;25968627;22;20027;-49
2023/05/09 12:40:32;;;;;;;14.90;12.23;;;12.50;99.90;;;;;;25971647;22;20038;-49
2023/05/09 12:50:34;;;;;;;16.85;12.68;;;12.50;99.90;;;;;;25971481;22;20351;-51
2023/05/09 13:00:43;;;;;;;15.75;11.60;;;12.20;99.90;;;;;;25970862;22;20062;-51
2023/05/09 13:10:45;;;;;;;14.57;12.10;;;12.00;99.90;;;;;;26011254;22;20005;-50
2023/05/09 13:20:47;;;;;;;13.73;10.50;;;11.80;99.90;;;;;;25969969;22;20504;-61
2023/05/09 13:30:48;;;;;;;12.73;9.98;;;11.60;99.90;;;;;;25969589;22;20061;-47
2023/05/09 13:40:50;;;;;;;11.70;9.80;;;11.50;99.90;;;;;;25969931;22;20054;-50
2023/05/09 13:50:52;;;;;;;11.98;9.48;;;11.50;99.90;;;;;;25969057;22;20016;-46
2023/05/09 14:00:54;;;;;;;10.80;8.55;;;11.40;99.90;;;;;;25968594;22;20037;-51
2023/05/09 14:10:55;;;;;;;10.18;8.32;;;11.30;99.90;;;;;;25966736;22;20008;-47
2023/05/09 14:20:57;;;;;;;10.70;7.93;;;11.20;99.90;;;;;;25967501;22;20007;-49
2023/05/09 14:30:59;;;;;;;10.43;8.23;;;11.30;99.90;;;;;;25967318;22;20000;-49
2023/05/09 14:41:01;;;;;;;10.60;7.80;;;11.40;99.90;;;;;;25966627;22;20011;-50
2023/05/09 14:51:02;;;;;;;10.13;8.15;;;11.70;99.90;;;;;;25965986;22;20400;-50
2023/05/09 15:01:04;;;;;;;8.00;6.85;;;12.10;99.90;;;;;;25966211;22;20000;-48
2023/05/09 15:11:06;;;;;;;8.98;7.32;;;13.00;99.90;;;;;;25966177;22;20008;-48
2023/05/09 15:21:09;;;;;;;8.00;7.15;;;13.90;99.90;;;;;;25965236;22;20061;-60
2023/05/09 15:31:10;;;;;;;7.60;5.85;;;14.20;99.90;;;;;;25965523;22;20007;-52
2023/05/09 15:41:13;;;;;;;12.20;7.10;;;13.90;99.90;;;;;;25965197;22;20092;-54
2023/05/09 15:51:15;;;;;;;7.78;6.53;;;13.40;99.90;;;;;;25964572;22;20015;-52
2023/05/09 16:01:17;;;;;;;9.23;7.82;;;12.90;99.90;;;;;;25963777;22;20509;-49
2023/05/09 16:11:20;;;;;;;10.05;8.57;;;12.50;99.90;;;;;;25963381;22;20030;-61
2023/05/09 16:21:25;;;;;;;13.90;9.23;;;12.20;99.90;;;;;;25963724;22;20011;-49
2023/05/09 16:31:27;;;;;;;12.20;10.02;;;11.80;99.90;;;;;;25962834;22;20476;-53
2023/05/09 16:41:29;;;;;;;14.82;10.85;;;11.40;99.90;;;;;;25964370;22;20018;-50
2023/05/09 16:51:30;;;;;;;14.75;11.30;;;11.10;99.90;;;;;;25963018;22;20020;-60
2023/05/09 17:01:32;;;;;;;14.00;11.52;;;10.90;99.90;;;;;;25963174;22;20019;-53
2023/05/09 17:11:33;;;;;;;16.17;11.40;;;10.70;99.90;;;;;;25964418;22;20023;-52
2023/05/09 17:21:37;;;;;;;15.73;11.07;;;10.50;99.90;;;;;;25970359;22;20000;-51
2023/05/09 17:31:38;;;;;;;13.20;10.57;;;10.50;99.90;;;;;;25969629;22;20015;-49
2023/05/09 17:41:40;;;;;;;14.65;11.82;;;10.40;99.90;;;;;;25968291;22;20007;-49
2023/05/09 17:51:42;;;;;;;14.20;11.05;;;10.40;99.90;;;;;;25968863;22;20007;-52
2023/05/09 18:01:43;;;;;;;14.50;11.88;;;10.40;99.90;;;;;;25968650;22;20061;-50
2023/05/09 18:11:45;;;;;;;17.48;12.48;;;10.30;99.90;;;;;;25967420;22;20045;-50
2023/05/09 18:21:47;;;;;;;15.18;12.27;;;10.20;99.90;;;;;;25967598;22;20019;-52
2023/05/09 18:31:49;;;;;;;15.27;12.35;;;10.10;99.90;;;;;;25967006;22;20508;-51
2023/05/09 18:41:51;;;;;;;15.57;11.80;;;10.00;99.90;;;;;;25938906;22;20057;-52
2023/05/09 18:51:55;;;;;;;14.43;11.55;;;10.00;99.90;;;;;;25966461;22;20378;-48
2023/05/09 19:01:57;;;;;;;15.55;12.00;;;9.90;99.90;;;;;;25965470;22;20010;-50
2023/05/09 19:12:01;;;;;;;13.90;10.75;;;9.90;99.90;;;;;;25938331;22;20066;-52
2023/05/09 19:22:03;;;;;;;16.10;11.80;;;9.80;99.90;;;;;;25965201;22;20010;-51
2023/05/09 19:32:05;;;;;;;17.55;12.52;;;9.70;99.90;;;;;;25964158;22;20073;-51
2023/05/09 19:42:07;;;;;;;18.08;13.25;;;9.60;99.90;;;;;;25964515;22;20382;-50
2023/05/09 19:52:12;;;;;;;17.30;12.45;;;9.50;99.90;;;;;;25964458;22;20063;-51
2023/05/09 20:02:14;;;;;;;17.08;11.77;;;9.40;99.90;;;;;;25964377;22;20008;-60
2023/05/09 20:12:15;;;;;;;14.35;10.75;;;9.30;99.90;;;;;;25964317;22;20003;-51
2023/05/09 20:22:17;;;;;;;14.25;10.52;;;9.20;99.90;;;;;;25964089;22;20007;-57
2023/05/09 20:32:21;;;;;;;15.38;11.20;;;9.10;99.90;;;;;;25963975;22;20015;-51
2023/05/09 20:42:23;;;;;;;14.90;11.15;;;9.00;99.90;;;;;;25965267;22;20348;-51
2023/05/09 20:52:24;;;;;;;14.43;9.57;;;9.00;99.90;;;;;;26011506;22;20113;-50
2023/05/09 21:02:26;;;;;;;18.13;12.07;;;8.80;99.90;;;;;;25971192;22;20050;-50
2023/05/09 21:12:29;;;;;;;15.18;10.52;;;8.70;99.90;;;;;;25971997;22;20012;-50
2023/05/09 21:22:31;;;;;;;12.35;8.45;;;8.70;99.90;;;;;;25971217;22;20046;-59
2023/05/09 21:32:33;;;;;;;13.80;9.30;;;8.60;99.90;;;;;;25969777;22;20004;-48
2023/05/09 21:42:36;;;;;;;12.18;8.65;;;8.60;99.90;;;;;;25970397;22;20015;-59
2023/05/09 21:52:37;;;;;;;13.60;7.93;;;8.50;99.90;;;;;;26012597;22;20442;-49
2023/05/09 22:02:43;;;;;;;15.02;8.10;;;8.50;99.90;;;;;;25969162;22;20015;-59
2023/05/09 22:12:45;;;;;;;14.80;9.77;;;8.40;99.90;;;;;;26011612;22;20023;-47
2023/05/09 22:22:47;;;;;;;16.75;9.60;;;8.40;99.90;;;;;;25967199;22;20073;-51
2023/05/09 22:32:49;;;;;;;15.60;9.43;;;8.40;99.90;;;;;;25941208;22;20011;-51
2023/05/09 22:42:50;;;;;;;14.52;10.13;;;8.40;99.90;;;;;;25968153;22;20015;-46
2023/05/09 22:52:52;;;;;;;12.80;9.23;;;8.40;99.90;;;;;;25967866;22;20008;-48
2023/05/09 23:02:53;;;;;;;12.90;9.13;;;8.30;99.90;;;;;;25967593;22;20358;-48
2023/05/09 23:12:55;;;;;;;11.20;8.15;;;8.30;99.90;;;;;;25966972;22;20003;-47
2023/05/09 23:22:57;;;;;;;11.57;7.88;;;8.30;99.90;;;;;;25963902;22;19999;-60
2023/05/09 23:32:58;;;;;;;10.27;7.38;;;8.30;99.90;;;;;;25966402;22;20003;-52
2023/05/09 23:43:00;;;;;;;8.38;6.13;;;8.30;99.90;;;;;;25965711;22;20011;-49
2023/05/09 23:53:03;;;;;;;8.57;5.93;;;8.20;99.90;;;;;;25965957;22;20331;-59
